createdAt,value
2023-04-06T00:00:04.745Z,4.85
2023-04-06T00:01:06.484Z,5.35
2023-04-06T00:02:10.962Z,5.30
2023-04-06T00:03:16.015Z,5.18
2023-04-06T00:04:21.908Z,5.55
2023-04-06T00:05:27.369Z,4.07
2023-04-06T00:06:32.929Z,4.75
2023-04-06T00:07:35.743Z,4.35
2023-04-06T00:08:39.180Z,4.65
2023-04-06T00:09:41.696Z,4.63
2023-04-06T00:10:46.341Z,4.78
2023-04-06T00:11:50.859Z,4.63
2023-04-06T00:12:54.861Z,4.25
2023-04-06T00:13:57.639Z,4.80
2023-04-06T00:15:04.028Z,4.38
2023-04-06T00:16:07.375Z,5.32
2023-04-06T00:17:09.511Z,5.32
2023-04-06T00:18:15.403Z,5.43
2023-04-06T00:19:18.224Z,4.47
2023-04-06T00:20:21.680Z,5.18
2023-04-06T00:21:28.550Z,4.63
2023-04-06T00:22:35.159Z,5.15
2023-04-06T00:23:40.598Z,5.40
2023-04-06T00:24:42.598Z,4.63
2023-04-06T00:25:47.651Z,6.30
2023-04-06T00:26:52.804Z,5.00
2023-04-06T00:27:56.196Z,4.88
2023-04-06T00:29:00.612Z,4.90
2023-04-06T00:30:05.021Z,5.45
2023-04-06T00:31:10.725Z,4.43
2023-04-06T00:32:15.222Z,5.63
2023-04-06T00:33:21.955Z,4.80
2023-04-06T00:34:24.953Z,5.32
2023-04-06T00:35:27.699Z,5.35
2023-04-06T00:36:32.270Z,4.50
2023-04-06T00:37:44.837Z,4.45
2023-04-06T00:38:50.508Z,4.53
2023-04-06T00:39:53.498Z,4.78
2023-04-06T00:40:55.295Z,4.80
2023-04-06T00:42:00.248Z,5.03
2023-04-06T00:43:05.790Z,4.82
2023-04-06T00:44:09.241Z,4.90
2023-04-06T00:45:12.630Z,5.00
2023-04-06T00:46:14.472Z,5.10
2023-04-06T00:47:19.648Z,5.13
2023-04-06T00:48:21.920Z,5.28
2023-04-06T00:49:23.743Z,4.85
2023-04-06T00:50:25.924Z,4.60
2023-04-06T00:51:29.047Z,5.40
2023-04-06T00:52:32.436Z,5.00
2023-04-06T00:53:37.895Z,4.32
2023-04-06T00:54:40.652Z,5.50
2023-04-06T00:55:46.038Z,5.20
2023-04-06T00:56:48.581Z,4.93
2023-04-06T00:57:52.679Z,4.70
2023-04-06T00:58:57.869Z,5.05
2023-04-06T01:00:01.353Z,5.78
2023-04-06T01:01:03.170Z,4.80
2023-04-06T01:02:06.521Z,4.97
2023-04-06T01:03:11.551Z,4.70
2023-04-06T01:04:14.606Z,4.78
2023-04-06T01:05:19.802Z,4.97
2023-04-06T01:06:22.629Z,5.05
2023-04-06T01:07:26.990Z,5.28
2023-04-06T01:08:31.308Z,4.80
2023-04-06T01:09:36.281Z,5.03
2023-04-06T01:10:42.365Z,4.97
2023-04-06T01:11:44.820Z,4.93
2023-04-06T01:12:50.113Z,5.70
2023-04-06T01:14:56.849Z,5.22
2023-04-06T01:16:02.618Z,5.47
2023-04-06T01:17:04.609Z,5.80
2023-04-06T01:18:08.274Z,5.28
2023-04-06T01:19:11.569Z,4.97
2023-04-06T01:20:17.879Z,5.95
2023-04-06T01:21:23.848Z,5.25
2023-04-06T01:22:27.210Z,5.07
2023-04-06T01:23:32.666Z,5.20
2023-04-06T01:24:35.693Z,5.35
2023-04-06T01:25:38.136Z,5.18
2023-04-06T01:26:41.984Z,4.75
2023-04-06T01:27:48.191Z,5.18
2023-04-06T01:28:51.352Z,5.07
2023-04-06T01:29:53.654Z,5.05
2023-04-06T01:30:56.555Z,5.43
2023-04-06T01:32:02.330Z,5.95
2023-04-06T01:33:05.508Z,4.82
2023-04-06T01:34:07.639Z,5.32
2023-04-06T01:35:13.005Z,5.25
2023-04-06T01:36:15.369Z,5.00
2023-04-06T01:37:20.757Z,6.30
2023-04-06T01:38:24.957Z,5.25
2023-04-06T01:39:28.310Z,5.10
2023-04-06T01:40:33.314Z,5.35
2023-04-06T01:41:35.617Z,5.40
2023-04-06T01:42:38.354Z,5.40
2023-04-06T01:43:41.253Z,5.32
2023-04-06T01:44:44.974Z,4.97
2023-04-06T01:45:49.302Z,5.47
2023-04-06T01:46:53.005Z,5.07
2023-04-06T01:47:55.965Z,5.38
2023-04-06T01:48:58.636Z,5.35
2023-04-06T01:50:02.328Z,5.60
2023-04-06T01:51:04.776Z,5.30
2023-04-06T01:52:12.747Z,5.60
2023-04-06T01:53:15.612Z,5.60
2023-04-06T01:54:21.124Z,5.22
2023-04-06T01:55:23.683Z,5.10
2023-04-06T01:56:27.469Z,5.32
2023-04-06T01:57:29.608Z,5.18
2023-04-06T01:58:32.460Z,4.97
2023-04-06T01:59:34.690Z,5.40
2023-04-06T02:00:37.636Z,5.25
2023-04-06T02:01:42.055Z,4.85
2023-04-06T02:02:45.467Z,5.40
2023-04-06T02:03:47.702Z,5.43
2023-04-06T02:04:54.027Z,5.03
2023-04-06T02:05:55.824Z,5.30
2023-04-06T02:06:59.163Z,5.07
2023-04-06T02:08:02.819Z,5.10
2023-04-06T02:09:04.596Z,5.45
2023-04-06T02:10:13.738Z,5.50
2023-04-06T02:11:17.720Z,6.38
2023-04-06T02:12:23.339Z,5.82
2023-04-06T02:13:26.596Z,6.63
2023-04-06T02:14:31.327Z,7.07
2023-04-06T02:15:33.516Z,5.30
2023-04-06T02:16:35.748Z,5.45
2023-04-06T02:17:41.320Z,5.25
2023-04-06T02:18:45.607Z,6.00
2023-04-06T02:19:52.566Z,5.70
2023-04-06T02:20:56.650Z,6.18
2023-04-06T02:21:59.411Z,6.85
2023-04-06T02:23:01.888Z,5.38
2023-04-06T02:24:05.983Z,5.13
2023-04-06T02:25:09.117Z,5.65
2023-04-06T02:26:11.685Z,5.70
2023-04-06T02:27:14.791Z,5.72
2023-04-06T02:28:20.403Z,5.47
2023-04-06T02:29:25.661Z,6.45
2023-04-06T02:30:30.271Z,6.20
2023-04-06T02:31:37.765Z,5.60
2023-04-06T02:32:40.824Z,5.32
2023-04-06T02:33:42.737Z,5.53
2023-04-06T02:34:45.557Z,5.80
2023-04-06T02:35:47.785Z,6.45
2023-04-06T02:36:51.907Z,5.90
2023-04-06T02:38:57.752Z,5.68
2023-04-06T02:40:01.103Z,5.90
2023-04-06T02:41:02.894Z,5.70
2023-04-06T02:42:05.754Z,6.57
2023-04-06T02:43:07.655Z,5.85
2023-04-06T02:44:11.312Z,6.28
2023-04-06T02:45:17.525Z,6.43
2023-04-06T02:46:22.144Z,5.97
2023-04-06T02:47:27.405Z,5.25
2023-04-06T02:48:32.132Z,6.57
2023-04-06T02:49:34.738Z,6.30
2023-04-06T02:50:37.657Z,6.28
2023-04-06T02:51:46.091Z,5.75
2023-04-06T02:52:49.155Z,5.63
2023-04-06T02:53:50.988Z,5.63
2023-04-06T02:54:54.058Z,5.32
2023-04-06T02:55:57.695Z,6.22
2023-04-06T02:57:01.926Z,5.82
2023-04-06T02:58:04.702Z,5.72
2023-04-06T02:59:11.263Z,5.88
2023-04-06T03:00:14.823Z,6.25
2023-04-06T03:01:20.402Z,5.78
2023-04-06T03:02:22.297Z,5.90
2023-04-06T03:03:25.140Z,5.88
2023-04-06T03:04:27.655Z,5.88
2023-04-06T03:05:33.861Z,5.22
2023-04-06T03:06:35.672Z,5.60
2023-04-06T03:07:41.822Z,5.82
2023-04-06T03:08:44.761Z,5.05
2023-04-06T03:09:46.685Z,6.05
2023-04-06T03:10:48.710Z,5.90
2023-04-06T03:11:54.210Z,6.15
2023-04-06T03:12:58.043Z,5.32
2023-04-06T03:14:01.086Z,5.45
2023-04-06T03:18:14.786Z,5.35
2023-04-06T03:19:21.669Z,6.38
2023-04-06T03:20:25.911Z,5.82
2023-04-06T03:21:32.032Z,5.50
2023-04-06T03:22:33.788Z,6.05
2023-04-06T03:23:38.996Z,5.80
2023-04-06T03:24:45.592Z,5.90
2023-04-06T03:25:48.475Z,5.72
2023-04-06T03:26:50.368Z,6.43
2023-04-06T03:27:53.228Z,6.28
2023-04-06T03:28:58.755Z,5.80
2023-04-06T03:30:01.570Z,5.90
2023-04-06T03:31:03.799Z,6.90
2023-04-06T03:32:06.117Z,6.85
2023-04-06T03:33:09.496Z,6.05
2023-04-06T03:34:11.699Z,6.38
2023-04-06T03:37:22.780Z,5.97
2023-04-06T03:41:38.179Z,6.07
2023-04-06T03:42:41.388Z,5.75
2023-04-06T03:43:46.215Z,6.75
2023-04-06T03:44:50.218Z,6.57
2023-04-06T03:45:52.719Z,6.68
2023-04-06T03:46:54.689Z,6.68
2023-04-06T03:47:57.846Z,7.00
2023-04-06T03:49:03.373Z,7.32
2023-04-06T03:50:06.028Z,6.53
2023-04-06T03:51:09.073Z,6.40
2023-04-06T03:52:11.748Z,6.72
2023-04-06T03:53:17.073Z,7.05
2023-04-06T03:54:21.275Z,6.63
2023-04-06T03:55:24.032Z,7.40
2023-04-06T03:56:29.042Z,5.93
2023-04-06T03:57:31.793Z,6.35
2023-04-06T03:58:35.874Z,7.00
2023-04-06T03:59:37.624Z,6.40
2023-04-06T04:00:41.841Z,7.43
2023-04-06T04:01:47.071Z,6.75
2023-04-06T04:02:49.635Z,7.05
2023-04-06T04:03:53.525Z,6.50
2023-04-06T04:04:55.543Z,7.90
2023-04-06T04:05:58.932Z,6.60
2023-04-06T04:07:03.506Z,6.75
2023-04-06T04:08:06.713Z,7.32
2023-04-06T04:09:08.861Z,7.72
2023-04-06T04:10:12.139Z,6.88
2023-04-06T04:11:14.582Z,6.90
2023-04-06T04:18:54.626Z,7.13
2023-04-06T04:20:01.532Z,7.80
2023-04-06T04:21:03.285Z,7.57
2023-04-06T04:22:06.880Z,8.70
2023-04-06T04:23:08.539Z,7.45
2023-04-06T04:24:13.950Z,7.82
2023-04-06T04:25:16.697Z,7.80
2023-04-06T04:26:20.807Z,9.05
2023-04-06T04:27:23.024Z,7.30
2023-04-06T04:28:30.107Z,8.07
2023-04-06T04:29:32.548Z,7.85
2023-04-06T04:30:34.534Z,7.75
2023-04-06T04:31:38.494Z,8.73
2023-04-06T04:32:40.746Z,8.82
2023-04-06T04:33:42.368Z,7.85
2023-04-06T04:34:46.814Z,7.00
2023-04-06T04:35:52.133Z,7.28
2023-04-06T04:36:54.559Z,7.25
2023-04-06T04:37:56.544Z,7.50
2023-04-06T04:39:01.826Z,7.40
2023-04-06T04:40:03.875Z,7.68
2023-04-06T04:41:11.216Z,8.43
2023-04-06T04:42:13.725Z,8.52
2023-04-06T04:43:16.893Z,8.35
2023-04-06T04:44:20.921Z,7.90
2023-04-06T04:45:26.652Z,8.60
2023-04-06T04:46:28.629Z,7.00
2023-04-06T04:47:31.438Z,7.30
2023-04-06T04:48:34.065Z,7.35
2023-04-06T04:49:39.364Z,7.55
2023-04-06T04:50:44.012Z,6.95
2023-04-06T04:51:46.975Z,6.97
2023-04-06T04:52:49.554Z,6.15
2023-04-06T04:53:51.439Z,6.28
2023-04-06T04:54:53.555Z,7.07
2023-04-06T04:55:55.115Z,7.90
2023-04-06T04:56:57.590Z,7.47
2023-04-06T04:58:03.656Z,7.13
2023-04-06T04:59:06.219Z,7.80
2023-04-06T05:00:12.096Z,7.38
2023-04-06T05:01:14.640Z,7.97
2023-04-06T05:02:16.954Z,6.57
2023-04-06T05:03:25.276Z,7.10
2023-04-06T05:04:28.085Z,6.95
2023-04-06T05:05:32.907Z,7.30
2023-04-06T05:06:36.020Z,6.88
2023-04-06T05:07:37.699Z,7.30
2023-04-06T05:08:40.731Z,6.55
2023-04-06T05:09:42.659Z,6.78
2023-04-06T05:10:45.934Z,6.93
2023-04-06T05:11:47.606Z,7.93
2023-04-06T05:12:49.602Z,7.85
2023-04-06T05:13:51.870Z,7.45
2023-04-06T05:14:56.248Z,7.50
2023-04-06T05:16:01.969Z,7.43
2023-04-06T05:17:04.853Z,6.57
2023-04-06T05:18:08.814Z,8.20
2023-04-06T05:19:15.344Z,8.13
2023-04-06T05:20:17.232Z,7.10
2023-04-06T05:21:22.274Z,6.93
2023-04-06T05:22:27.132Z,7.57
2023-04-06T05:23:29.582Z,7.82
2023-04-06T05:24:32.962Z,7.18
2023-04-06T05:25:37.718Z,7.25
2023-04-06T05:26:40.572Z,7.68
2023-04-06T05:27:42.854Z,7.97
2023-04-06T05:28:45.938Z,8.10
2023-04-06T05:29:47.548Z,7.53
2023-04-06T05:30:49.572Z,7.90
2023-04-06T05:31:52.544Z,8.85
2023-04-06T05:32:54.604Z,7.60
2023-04-06T05:33:57.124Z,7.47
2023-04-06T05:35:01.667Z,7.30
2023-04-06T05:36:07.254Z,7.72
2023-04-06T05:37:08.922Z,7.68
2023-04-06T05:38:14.407Z,7.60
2023-04-06T05:39:17.143Z,7.30
2023-04-06T05:40:21.868Z,7.43
2023-04-06T05:41:24.142Z,7.70
2023-04-06T05:42:28.224Z,7.50
2023-04-06T05:43:32.061Z,7.75
2023-04-06T05:44:34.700Z,7.78
2023-04-06T05:45:40.850Z,7.45
2023-04-06T05:46:42.509Z,7.97
2023-04-06T05:47:47.893Z,8.10
2023-04-06T05:48:49.612Z,7.55
2023-04-06T05:49:52.433Z,6.93
2023-04-06T05:50:54.640Z,8.52
2023-04-06T05:51:59.092Z,8.52
2023-04-06T05:53:01.623Z,7.75
2023-04-06T05:54:06.044Z,7.75
2023-04-06T05:55:10.638Z,8.27
2023-04-06T05:56:14.520Z,7.47
2023-04-06T05:57:20.357Z,7.80
2023-04-06T05:58:23.247Z,8.23
2023-04-06T05:59:26.433Z,7.65
2023-04-06T06:00:30.373Z,8.32
2023-04-06T06:01:36.332Z,7.80
2023-04-06T06:02:41.171Z,12.90
2023-04-06T06:03:46.198Z,8.50
2023-04-06T06:04:49.010Z,7.75
2023-04-06T06:05:51.581Z,7.22
2023-04-06T06:06:53.232Z,8.07
2023-04-06T06:07:58.317Z,7.38
2023-04-06T06:09:02.283Z,8.35
2023-04-06T06:10:04.660Z,7.43
2023-04-06T06:11:06.688Z,7.53
2023-04-06T06:12:14.654Z,8.40
2023-04-06T06:13:16.473Z,9.00
2023-04-06T06:14:22.454Z,9.07
2023-04-06T06:15:24.597Z,8.48
2023-04-06T06:16:27.530Z,8.10
2023-04-06T06:17:29.646Z,8.70
2023-04-06T06:18:32.047Z,7.53
2023-04-06T06:19:38.903Z,8.50
2023-04-06T06:20:40.687Z,7.50
2023-04-06T06:21:42.663Z,7.90
2023-04-06T06:22:45.664Z,8.88
2023-04-06T06:23:50.518Z,7.85
2023-04-06T06:24:52.156Z,7.80
2023-04-06T06:28:20.453Z,7.75
2023-04-06T06:32:12.640Z,6.80
2023-04-06T06:35:34.439Z,8.35
2023-04-06T06:36:51.602Z,7.97
2023-04-06T06:39:28.298Z,8.40
2023-04-06T06:40:34.036Z,7.82
2023-04-06T06:41:45.972Z,7.72
2023-04-06T06:42:51.209Z,7.75
2023-04-06T06:43:54.801Z,7.55
2023-04-06T06:44:56.788Z,7.90
2023-04-06T06:46:06.434Z,8.75
2023-04-06T06:47:13.188Z,8.15
2023-04-06T06:48:24.887Z,7.57
2023-04-06T06:49:31.548Z,7.85
2023-04-06T06:50:35.833Z,7.28
2023-04-06T06:51:41.376Z,11.45
2023-04-06T06:52:47.529Z,11.90
2023-04-06T06:53:49.746Z,8.18
2023-04-06T06:54:52.049Z,7.45
2023-04-06T06:55:54.819Z,8.07
2023-04-06T06:56:57.048Z,8.07
2023-04-06T06:58:02.927Z,7.60
2023-04-06T06:59:07.177Z,7.30
2023-04-06T07:00:15.937Z,7.68
2023-04-06T07:01:22.066Z,6.90
2023-04-06T07:02:25.060Z,8.00
2023-04-06T07:03:33.368Z,7.63
2023-04-06T07:04:41.456Z,9.25
2023-04-06T07:05:57.141Z,7.78
2023-04-06T07:07:05.743Z,7.05
2023-04-06T07:08:07.946Z,6.55
2023-04-06T07:09:09.910Z,7.10
2023-04-06T07:10:13.098Z,16.15
2023-04-06T07:11:17.754Z,8.02
2023-04-06T07:12:23.843Z,7.75
2023-04-06T07:13:28.704Z,8.15
2023-04-06T07:14:36.314Z,7.22
2023-04-06T07:15:40.528Z,6.70
2023-04-06T07:16:50.863Z,9.25
2023-04-06T07:17:57.015Z,7.10
2023-04-06T07:19:24.497Z,7.20
2023-04-06T07:20:26.698Z,7.32
2023-04-06T07:21:28.930Z,7.53
2023-04-06T07:22:32.579Z,7.07
2023-04-06T07:23:35.002Z,6.70
2023-04-06T07:24:40.274Z,6.80
2023-04-06T07:25:52.054Z,6.43
2023-04-06T07:26:55.221Z,7.28
2023-04-06T07:28:00.259Z,6.97
2023-04-06T07:29:08.805Z,7.30
2023-04-06T07:30:17.477Z,7.72
2023-04-06T07:31:20.691Z,6.70
2023-04-06T07:32:23.125Z,7.10
2023-04-06T07:33:25.155Z,6.57
2023-04-06T07:34:38.572Z,6.80
2023-04-06T07:35:46.800Z,6.63
2023-04-06T07:36:52.569Z,6.68
2023-04-06T07:37:59.231Z,7.50
2023-04-06T07:39:06.557Z,7.15
2023-04-06T07:40:12.897Z,7.32
2023-04-06T07:41:14.900Z,6.85
2023-04-06T07:57:22.214Z,5.45
2023-04-06T07:58:27.642Z,5.03
2023-04-06T07:59:29.866Z,5.15
2023-04-06T08:00:34.978Z,6.68
2023-04-06T08:07:19.751Z,5.35
2023-04-06T08:08:22.799Z,5.63
2023-04-06T08:09:31.679Z,6.00
2023-04-06T08:10:40.992Z,5.57
2023-04-06T08:11:53.838Z,5.70
2023-04-06T08:13:01.135Z,4.95
2023-04-06T08:14:18.913Z,4.90
2023-04-06T08:15:21.434Z,5.38
2023-04-06T08:16:23.887Z,5.95
2023-04-06T08:17:34.454Z,5.57
2023-04-06T08:18:43.333Z,5.07
2023-04-06T08:19:53.176Z,5.95
2023-04-06T08:22:15.061Z,5.55
2023-04-06T08:23:26.704Z,6.32
2023-04-06T08:24:28.972Z,6.13
2023-04-06T08:25:31.194Z,5.60
2023-04-06T08:26:33.172Z,5.25
2023-04-06T08:27:36.077Z,5.22
2023-04-06T08:28:49.334Z,5.60
2023-04-06T08:29:54.113Z,5.38
2023-04-06T08:31:23.674Z,5.75
2023-04-06T08:32:28.338Z,5.90
2023-04-06T08:33:36.395Z,5.65
2023-04-06T08:45:27.350Z,4.82
2023-04-06T09:10:59.787Z,4.13
2023-04-06T09:12:07.545Z,4.65
2023-04-06T09:13:17.405Z,4.10
2023-04-06T09:14:36.514Z,4.85
2023-04-06T09:15:39.163Z,4.80
2023-04-06T09:16:45.531Z,4.60
2023-04-06T09:17:51.353Z,4.00
2023-04-06T09:18:57.172Z,3.92
2023-04-06T09:20:04.260Z,3.72
2023-04-06T09:21:12.051Z,3.97
2023-04-06T09:22:16.059Z,3.58
2023-04-06T09:23:24.301Z,3.47
2023-04-06T09:24:29.903Z,3.63
2023-04-06T09:25:33.012Z,3.80
2023-04-06T09:26:48.849Z,3.70
2023-04-06T09:28:01.582Z,3.33
2023-04-06T09:29:08.532Z,3.60
2023-04-06T09:30:21.681Z,3.30
2023-04-06T09:31:30.893Z,3.67
2023-04-06T09:32:54.530Z,3.80
2023-04-06T09:33:58.658Z,3.38
2023-04-06T09:35:13.708Z,3.63
2023-04-06T09:36:37.622Z,3.45
2023-04-06T09:37:42.434Z,3.50
2023-04-06T09:39:09.928Z,3.30
2023-04-06T09:40:13.348Z,3.63
2023-04-06T09:41:22.735Z,3.50
2023-04-06T09:42:31.725Z,3.53
2023-04-06T09:43:38.116Z,3.60
2023-04-06T09:44:48.149Z,3.47
2023-04-06T09:45:54.187Z,3.47
2023-04-06T09:47:00.427Z,4.20
2023-04-06T09:48:06.906Z,4.82
2023-04-06T09:49:14.530Z,4.45
2023-04-06T09:50:17.630Z,4.30
2023-04-06T09:51:23.570Z,4.32
2023-04-06T09:52:28.797Z,4.00
2023-04-06T09:53:33.764Z,4.43
2023-04-06T09:54:36.373Z,4.30
2023-04-06T09:55:47.182Z,4.25
2023-04-06T09:57:13.288Z,3.70
2023-04-06T09:58:27.160Z,4.28
2023-04-06T10:00:00.185Z,4.00
2023-04-06T10:01:19.113Z,3.90
2023-04-06T10:02:33.826Z,3.92
2023-04-06T10:03:49.049Z,3.80
2023-04-06T10:04:58.600Z,3.95
2023-04-06T10:06:06.611Z,4.00
2023-04-06T10:07:12.923Z,4.05
2023-04-06T10:08:15.081Z,4.18
2023-04-06T10:09:18.237Z,4.72
2023-04-06T10:10:22.067Z,3.97
2023-04-06T10:11:25.188Z,4.20
2023-04-06T10:37:11.788Z,4.07
2023-04-06T10:38:15.692Z,4.88
2023-04-06T10:39:25.416Z,5.15
2023-04-06T10:40:27.576Z,4.40
2023-04-06T10:41:42.494Z,4.53
2023-04-06T10:42:44.140Z,4.45
2023-04-06T10:43:47.498Z,3.97
2023-04-06T10:44:50.597Z,4.30
2023-04-06T10:46:01.005Z,4.43
2023-04-06T10:47:02.685Z,4.70
2023-04-06T10:48:16.965Z,3.88
2023-04-06T10:49:18.610Z,4.03
2023-04-06T10:50:20.251Z,4.07
2023-04-06T10:51:28.187Z,3.72
2023-04-06T10:52:29.909Z,4.35
2023-04-06T10:53:34.244Z,4.13
2023-04-06T10:54:40.262Z,4.07
2023-04-06T10:55:42.398Z,4.60
2023-04-06T10:56:44.025Z,3.83
2023-04-06T10:57:47.425Z,3.95
2023-04-06T10:58:49.778Z,3.80
2023-04-06T10:59:54.294Z,4.20
2023-04-06T11:00:57.037Z,3.80
2023-04-06T11:01:58.671Z,3.67
2023-04-06T11:03:01.016Z,3.47
2023-04-06T11:04:02.870Z,3.38
2023-04-06T11:05:04.794Z,2.85
2023-04-06T11:06:07.255Z,3.55
2023-04-06T11:07:08.827Z,3.45
2023-04-06T11:08:10.573Z,3.53
2023-04-06T11:09:12.246Z,2.95
2023-04-06T11:10:21.775Z,3.30
2023-04-06T11:11:24.563Z,3.40
2023-04-06T11:12:26.990Z,4.20
2023-04-06T11:13:37.705Z,3.50
2023-04-06T11:14:40.055Z,3.20
2023-04-06T11:15:41.609Z,3.72
2023-04-06T11:16:43.629Z,3.72
2023-04-06T11:17:47.076Z,3.15
2023-04-06T11:18:53.316Z,3.60
2023-04-06T11:19:56.025Z,3.10
2023-04-06T11:21:04.850Z,3.40
2023-04-06T11:22:10.113Z,3.45
2023-04-06T11:23:15.202Z,3.53
2023-04-06T11:24:18.563Z,3.45
2023-04-06T11:25:20.770Z,3.40
2023-04-06T11:26:22.645Z,3.40
2023-04-06T11:27:24.869Z,2.97
2023-04-06T11:28:32.257Z,3.95
2023-04-06T11:29:36.773Z,4.07
2023-04-06T11:30:39.098Z,3.33
2023-04-06T11:31:46.975Z,3.47
2023-04-06T11:32:49.015Z,3.97
2023-04-06T11:33:56.590Z,3.47
2023-04-06T11:34:59.110Z,3.42
2023-04-06T11:36:04.118Z,3.13
2023-04-06T11:37:09.060Z,3.33
2023-04-06T11:38:10.895Z,3.38
2023-04-06T11:39:13.786Z,3.10
2023-04-06T11:40:15.782Z,3.10
2023-04-06T11:41:18.093Z,3.00
2023-04-06T11:42:26.642Z,2.78
2023-04-06T11:43:31.807Z,3.38
2023-04-06T11:44:37.423Z,3.03
2023-04-06T11:45:45.421Z,4.57
2023-04-06T11:46:53.701Z,4.75
2023-04-06T11:48:00.680Z,3.30
2023-04-06T11:49:03.756Z,3.13
2023-04-06T11:50:12.814Z,2.83
2023-04-06T11:51:22.727Z,3.13
2023-04-06T11:52:25.638Z,6.30
2023-04-06T11:53:27.763Z,3.20
2023-04-06T11:54:38.204Z,3.10
2023-04-06T11:55:40.439Z,3.33
2023-04-06T11:56:42.599Z,2.88
2023-04-06T11:57:44.808Z,3.38
2023-04-06T11:58:46.759Z,3.03
2023-04-06T11:59:48.986Z,3.88
2023-04-06T12:00:51.056Z,3.15
2023-04-06T12:01:54.475Z,2.70
2023-04-06T12:02:56.637Z,3.00
2023-04-06T12:03:58.462Z,3.63
2023-04-06T12:05:00.177Z,3.15
2023-04-06T12:06:01.962Z,2.50
2023-04-06T12:07:04.002Z,2.90
2023-04-06T12:08:06.018Z,2.95
2023-04-06T12:09:07.867Z,2.92
2023-04-06T12:10:09.861Z,2.90
2023-04-06T12:11:12.036Z,3.10
2023-04-06T12:12:14.051Z,3.55
2023-04-06T12:13:15.998Z,2.70
2023-04-06T12:14:18.163Z,2.70
2023-04-06T12:15:19.907Z,3.10
2023-04-06T12:16:21.688Z,2.85
2023-04-06T12:17:24.478Z,2.90
2023-04-06T12:18:26.676Z,2.97
2023-04-06T12:19:29.029Z,2.90
2023-04-06T12:20:32.761Z,2.80
2023-04-06T12:21:36.483Z,3.17
2023-04-06T12:22:38.334Z,2.97
2023-04-06T12:23:40.661Z,3.28
2023-04-06T12:24:42.442Z,3.15
2023-04-06T12:26:04.753Z,2.92
2023-04-06T12:27:11.005Z,4.03
2023-04-06T12:28:15.595Z,3.63
2023-04-06T12:29:17.777Z,2.92
2023-04-06T12:30:19.716Z,2.80
2023-04-06T12:31:22.923Z,2.90
2023-04-06T12:32:24.834Z,2.75
2023-04-06T12:33:26.771Z,3.47
2023-04-06T12:34:28.733Z,3.35
2023-04-06T12:35:34.377Z,2.78
2023-04-06T12:36:36.161Z,2.60
2023-04-06T12:37:38.024Z,2.80
2023-04-06T12:38:41.429Z,3.13
2023-04-06T12:39:45.727Z,2.97
2023-04-06T12:40:47.415Z,2.63
2023-04-06T12:41:49.269Z,2.72
2023-04-06T12:42:51.279Z,2.30
2023-04-06T12:43:53.064Z,2.50
2023-04-06T12:44:54.895Z,2.78
2023-04-06T12:45:57.281Z,2.90
2023-04-06T12:46:59.176Z,2.83
2023-04-06T12:48:01.143Z,2.67
2023-04-06T12:49:06.550Z,2.85
2023-04-06T12:50:08.585Z,5.63
2023-04-06T12:51:10.635Z,3.78
2023-04-06T12:52:12.354Z,3.33
2023-04-06T12:53:13.911Z,2.88
2023-04-06T12:54:15.861Z,2.90
2023-04-06T12:55:17.811Z,3.00
2023-04-06T12:56:19.729Z,2.60
2023-04-06T12:57:24.357Z,2.85
2023-04-06T12:58:32.497Z,2.80
2023-04-06T12:59:38.364Z,2.92
2023-04-06T13:00:40.771Z,3.20
2023-04-06T13:01:42.559Z,2.60
2023-04-06T13:02:48.330Z,2.67
2023-04-06T13:03:50.924Z,7.60
2023-04-06T13:04:53.005Z,2.85
2023-04-06T13:05:54.814Z,2.97
2023-04-06T13:06:56.689Z,2.40
2023-04-06T13:07:58.537Z,2.85
2023-04-06T13:09:00.316Z,3.08
2023-04-06T13:10:02.258Z,2.75
2023-04-06T13:11:10.131Z,2.80
2023-04-06T13:12:12.065Z,2.80
2023-04-06T13:13:13.957Z,2.70
2023-04-06T13:14:15.799Z,2.70
2023-04-06T13:15:17.779Z,2.20
2023-04-06T13:16:19.602Z,2.63
2023-04-06T13:17:22.337Z,2.83
2023-04-06T13:18:24.278Z,2.70
2023-04-06T13:19:26.764Z,2.38
2023-04-06T13:20:29.092Z,2.42
2023-04-06T13:21:31.803Z,2.53
2023-04-06T13:22:33.611Z,2.28
2023-04-06T13:23:36.538Z,2.45
2023-04-06T13:24:38.563Z,2.40
2023-04-06T13:25:40.557Z,2.40
2023-04-06T13:26:42.415Z,2.67
2023-04-06T13:27:47.327Z,2.10
2023-04-06T13:28:49.499Z,2.38
2023-04-06T13:29:51.249Z,2.80
2023-04-06T13:30:53.340Z,2.85
2023-04-06T13:31:55.228Z,2.33
2023-04-06T13:32:59.807Z,3.72
2023-04-06T13:34:02.000Z,2.50
2023-04-06T13:35:04.983Z,2.97
2023-04-06T13:36:08.764Z,2.90
2023-04-06T13:37:10.724Z,2.60
2023-04-06T13:38:12.684Z,2.75
2023-04-06T13:39:14.427Z,3.15
2023-04-06T13:40:16.320Z,3.22
2023-04-06T13:41:30.036Z,2.42
2023-04-06T13:42:32.281Z,2.50
2023-04-06T13:43:34.096Z,2.30
2023-04-06T13:44:36.001Z,3.78
2023-04-06T13:45:38.403Z,2.88
2023-04-06T13:46:40.252Z,2.08
2023-04-06T13:47:43.410Z,2.20
2023-04-06T13:48:45.746Z,2.30
2023-04-06T13:49:47.952Z,2.35
2023-04-06T13:50:49.994Z,3.67
2023-04-06T13:51:52.585Z,2.63
2023-04-06T13:52:54.481Z,2.53
2023-04-06T13:53:56.356Z,2.67
2023-04-06T13:54:58.364Z,2.83
2023-04-06T13:56:00.152Z,2.20
2023-04-06T13:57:02.078Z,2.42
2023-04-06T13:58:03.871Z,2.50
2023-04-06T13:59:05.922Z,2.92
2023-04-06T14:00:08.468Z,3.08
2023-04-06T14:01:11.391Z,2.78
2023-04-06T14:02:15.151Z,3.30
2023-04-06T14:03:17.382Z,2.83
2023-04-06T14:04:19.317Z,3.10
2023-04-06T14:05:21.321Z,2.50
2023-04-06T14:06:31.006Z,2.78
2023-04-06T14:07:33.818Z,2.78
2023-04-06T14:08:35.868Z,3.00
2023-04-06T14:09:37.834Z,2.65
2023-04-06T14:10:43.572Z,2.65
2023-04-06T14:11:45.506Z,3.08
2023-04-06T14:12:47.312Z,2.88
2023-04-06T14:13:49.171Z,2.22
2023-04-06T14:14:51.419Z,2.78
2023-04-06T14:15:56.792Z,2.55
2023-04-06T14:16:58.571Z,2.38
2023-04-06T14:18:01.732Z,2.70
2023-04-06T14:19:04.061Z,2.58
2023-04-06T14:20:07.213Z,4.72
2023-04-06T14:21:08.996Z,2.70
2023-04-06T14:22:11.534Z,2.17
2023-04-06T14:23:13.401Z,3.67
2023-04-06T14:24:15.913Z,3.42
2023-04-06T14:25:17.974Z,3.00
2023-04-06T14:26:22.951Z,2.92
2023-04-06T14:27:25.635Z,2.60
2023-04-06T14:28:28.293Z,4.65
2023-04-06T14:29:30.190Z,2.97
2023-04-06T14:30:32.579Z,3.17
2023-04-06T14:31:34.465Z,2.47
2023-04-06T14:32:37.831Z,3.03
2023-04-06T14:33:40.089Z,3.00
2023-04-06T14:34:41.880Z,2.90
2023-04-06T14:35:43.678Z,2.80
2023-04-06T14:36:47.814Z,2.35
2023-04-06T14:37:49.629Z,3.00
2023-04-06T14:38:51.496Z,3.00
2023-04-06T14:39:53.475Z,2.95
2023-04-06T14:40:56.793Z,2.70
2023-04-06T14:42:00.100Z,2.60
2023-04-06T14:43:02.038Z,2.95
2023-04-06T14:44:04.246Z,3.83
2023-04-06T14:45:07.063Z,3.38
2023-04-06T14:46:09.712Z,3.50
2023-04-06T14:47:22.755Z,3.40
2023-04-06T14:48:24.525Z,3.00
2023-04-06T14:49:26.354Z,3.10
2023-04-06T14:50:28.413Z,3.42
2023-04-06T14:51:30.204Z,3.08
2023-04-06T14:52:32.825Z,3.30
2023-04-06T14:53:34.824Z,3.15
2023-04-06T14:54:36.706Z,3.30
2023-04-06T14:55:45.473Z,3.17
2023-04-06T14:56:47.233Z,3.00
2023-04-06T14:57:49.265Z,3.15
2023-04-06T14:58:52.086Z,3.00
2023-04-06T14:59:55.466Z,3.08
2023-04-06T15:01:00.743Z,3.38
2023-04-06T15:02:04.292Z,3.05
2023-04-06T15:03:06.845Z,2.55
2023-04-06T15:04:09.312Z,2.70
2023-04-06T15:05:12.253Z,2.75
2023-04-06T15:06:16.616Z,6.25
2023-04-06T15:07:18.447Z,12.55
2023-04-06T15:08:23.093Z,13.88
2023-04-06T15:09:24.882Z,7.47
2023-04-06T15:10:26.909Z,5.72
2023-04-06T15:11:28.878Z,3.88
2023-04-06T15:12:31.110Z,3.40
2023-04-06T15:13:33.007Z,3.63
2023-04-06T15:14:34.810Z,3.28
2023-04-06T15:15:36.824Z,3.95
2023-04-06T15:16:38.647Z,3.15
2023-04-06T15:17:40.708Z,3.90
2023-04-06T15:18:42.764Z,2.80
2023-04-06T15:19:46.808Z,3.25
2023-04-06T15:20:49.067Z,2.80
2023-04-06T15:21:51.205Z,3.10
2023-04-06T15:22:52.987Z,3.55
2023-04-06T15:23:55.207Z,3.30
2023-04-06T15:24:57.023Z,3.30
2023-04-06T15:26:00.004Z,3.53
2023-04-06T15:27:02.518Z,2.75
2023-04-06T15:28:04.202Z,3.45
2023-04-06T15:29:06.435Z,3.30
2023-04-06T15:30:08.850Z,3.30
2023-04-06T15:31:32.992Z,3.70
2023-04-06T15:32:39.207Z,3.97
2023-04-06T15:33:42.807Z,3.63
2023-04-06T15:34:46.516Z,3.40
2023-04-06T15:35:57.891Z,4.63
2023-04-06T15:37:03.005Z,3.38
2023-04-06T15:38:07.861Z,3.78
2023-04-06T15:39:10.088Z,3.85
2023-04-06T15:40:14.564Z,3.60
2023-04-06T15:41:16.279Z,3.80
2023-04-06T15:42:17.888Z,3.22
2023-04-06T15:43:19.494Z,3.72
2023-04-06T15:44:21.840Z,3.80
2023-04-06T15:45:23.484Z,3.30
2023-04-06T15:46:25.153Z,3.85
2023-04-06T15:47:26.788Z,4.38
2023-04-06T15:48:32.183Z,4.10
2023-04-06T15:49:33.967Z,4.15
2023-04-06T15:50:38.309Z,3.95
2023-04-06T15:51:40.519Z,3.95
2023-04-06T15:52:42.210Z,3.53
2023-04-06T15:53:44.433Z,3.25
2023-04-06T15:54:47.758Z,3.53
2023-04-06T15:55:49.337Z,3.30
2023-04-06T15:56:51.149Z,4.30
2023-04-06T15:57:52.810Z,3.85
2023-04-06T15:58:54.464Z,3.92
2023-04-06T15:59:56.375Z,3.67
2023-04-06T16:00:57.970Z,3.72
2023-04-06T16:02:00.730Z,3.40
2023-04-06T16:03:02.539Z,3.30